createdAt,value
2022-10-25T00:01:25.742Z,98464.66
2022-10-25T00:11:32.087Z,98462.67
2022-10-25T00:21:36.008Z,98469.71
2022-10-25T00:31:40.127Z,98470.60
2022-10-25T00:41:43.680Z,98468.11
2022-10-25T00:51:51.197Z,98468.70
2022-10-25T01:12:00.087Z,98469.63
2022-10-25T01:22:06.874Z,98459.58
2022-10-25T01:32:15.213Z,98466.55
2022-10-25T01:42:27.063Z,98468.30
2022-10-25T01:52:30.983Z,98462.92
2022-10-25T02:02:49.896Z,98464.93
2022-10-25T02:12:55.891Z,98465.66
2022-10-25T02:23:03.063Z,98473.72
2022-10-25T02:33:07.674Z,98480.73
2022-10-25T02:43:11.104Z,98468.17
2022-10-25T02:53:14.681Z,98463.71
2022-10-25T03:03:18.257Z,98460.80
2022-10-25T03:13:22.807Z,98453.81
2022-10-25T03:23:27.097Z,98463.20
2022-10-25T03:43:33.923Z,98471.08
2022-10-25T03:53:37.705Z,98473.71
2022-10-25T04:03:41.160Z,98467.14
2022-10-25T04:13:44.636Z,98471.16
2022-10-25T04:23:49.166Z,98470.67
2022-10-25T04:33:53.857Z,98469.45
2022-10-25T04:43:57.526Z,98473.41
2022-10-25T04:54:00.985Z,98481.34
2022-10-25T05:04:05.005Z,98481.52
2022-10-25T05:14:08.620Z,98479.63
2022-10-25T05:24:12.253Z,98487.88
2022-10-25T05:34:15.695Z,98498.13
2022-10-25T05:44:19.735Z,98508.81
2022-10-25T05:54:24.367Z,98520.83
2022-10-25T06:04:28.182Z,98532.47
2022-10-25T06:14:31.635Z,98541.27
2022-10-25T06:24:35.060Z,98548.35
2022-10-25T06:34:38.825Z,98552.36
2022-10-25T06:44:42.480Z,98556.95
2022-10-25T06:54:46.042Z,98563.85
2022-10-25T07:04:49.596Z,98564.36
2022-10-25T07:14:53.143Z,98573.33
2022-10-25T07:24:56.779Z,98583.04
2022-10-25T07:35:00.676Z,98595.50
2022-10-25T07:45:05.666Z,98595.23
2022-10-25T07:55:09.054Z,98599.02
2022-10-25T08:05:12.816Z,98597.27
2022-10-25T08:15:17.693Z,98599.13
2022-10-25T08:25:22.533Z,98603.49
2022-10-25T08:35:28.736Z,98601.77
2022-10-25T08:45:33.350Z,98606.81
2022-10-25T08:55:48.574Z,98604.60
2022-10-25T09:06:05.848Z,98599.94
2022-10-25T09:16:10.417Z,98598.45
2022-10-25T09:26:21.075Z,98602.04
2022-10-25T09:36:25.629Z,98606.06
2022-10-25T09:46:35.641Z,98618.00
2022-10-25T09:56:40.112Z,98622.18
2022-10-25T10:06:44.609Z,98625.06
2022-10-25T10:16:50.882Z,98624.42
2022-10-25T10:26:57.921Z,98617.51
2022-10-25T10:37:20.970Z,98617.98
2022-10-25T10:47:29.465Z,98620.96
2022-10-25T10:57:35.478Z,98619.62
2022-10-25T11:07:42.903Z,98610.14
2022-10-25T11:17:45.573Z,98608.84
2022-10-25T11:27:59.210Z,98603.08
2022-10-25T11:38:12.370Z,98602.26
2022-10-25T11:48:24.451Z,98612.52
2022-10-25T11:58:33.408Z,98631.08
2022-10-25T12:08:42.449Z,98629.82
2022-10-25T12:18:47.014Z,98624.75
2022-10-25T12:28:52.317Z,98620.05
2022-10-25T12:38:58.962Z,98618.35
2022-10-25T12:49:28.295Z,98612.09
2022-10-25T12:59:35.752Z,98618.48
2022-10-25T13:09:40.702Z,98623.87
2022-10-25T13:19:54.866Z,98632.27
2022-10-25T13:30:02.957Z,98641.56
2022-10-25T13:40:13.502Z,98641.92
2022-10-25T13:50:21.525Z,98644.34
2022-10-25T14:00:34.280Z,98657.20
2022-10-25T14:10:37.923Z,98666.95
2022-10-25T14:20:44.762Z,98669.63
2022-10-25T14:30:49.514Z,98676.71
2022-10-25T14:40:52.673Z,98676.69
2022-10-25T14:50:57.965Z,98676.27
2022-10-25T15:01:03.564Z,98678.86
2022-10-25T15:11:13.900Z,98686.58
2022-10-25T15:21:18.993Z,98689.03
2022-10-25T15:31:24.526Z,98693.42
2022-10-25T15:41:28.800Z,98698.34
2022-10-25T15:51:31.509Z,98696.39
2022-10-25T16:01:35.375Z,98699.35
2022-10-25T16:11:44.864Z,98705.20
2022-10-25T16:21:50.856Z,98717.07
2022-10-25T16:31:54.666Z,98723.86
2022-10-25T16:41:58.714Z,98736.31
2022-10-25T16:52:02.231Z,98735.38
2022-10-25T17:02:07.496Z,98738.21
2022-10-25T17:12:12.550Z,98745.15
2022-10-25T17:22:16.093Z,98758.38
2022-10-25T17:32:20.235Z,98773.35
2022-10-25T17:42:23.830Z,98774.34
2022-10-25T17:52:26.956Z,98782.05
2022-10-25T18:02:31.265Z,98790.27
2022-10-25T18:12:34.925Z,98790.59
2022-10-25T18:22:38.518Z,98791.66
2022-10-25T18:32:42.346Z,98794.05
2022-10-25T18:42:45.920Z,98801.89
2022-10-25T18:52:49.092Z,98806.35
2022-10-25T19:02:53.549Z,98805.73
2022-10-25T19:12:57.025Z,98814.80
2022-10-25T19:23:00.518Z,98822.66
2022-10-25T19:33:03.645Z,98826.23
2022-10-25T19:43:06.770Z,98833.52
2022-10-25T19:53:10.289Z,98836.34
2022-10-25T20:03:14.116Z,98845.65
2022-10-25T20:13:18.110Z,98844.27
2022-10-25T20:23:21.923Z,98845.65
2022-10-25T20:33:25.645Z,98848.71
2022-10-25T20:43:29.249Z,98849.70
2022-10-25T20:53:33.553Z,98852.63
2022-10-25T21:03:38.042Z,98853.95
2022-10-25T21:13:41.857Z,98862.59
2022-10-25T21:23:45.800Z,98873.29
2022-10-25T21:33:51.310Z,98867.64
2022-10-25T21:43:56.744Z,98868.66
2022-10-25T21:54:02.424Z,98865.86
2022-10-25T22:04:05.347Z,98861.92
2022-10-25T22:14:12.040Z,98860.98
2022-10-25T22:24:16.161Z,98869.67
2022-10-25T22:34:19.873Z,98872.35
2022-10-25T22:44:23.618Z,98875.77
2022-10-25T22:54:27.375Z,98881.85
2022-10-25T23:04:30.873Z,98884.55
2022-10-25T23:14:34.554Z,98887.17
2022-10-25T23:24:38.070Z,98890.44
2022-10-25T23:34:41.244Z,98897.49
2022-10-25T23:44:45.244Z,98897.04
2022-10-25T23:54:48.788Z,98896.83
